Time;durP1;ratioP1;P1;durP2;ratioP2;P2;SDS_P1;SDS_P2;PMS_P1;PMS_P2;Temp;Humidity;BMP_temperature;BMP_pressure;BME280_temperature;BME280_humidity;BME280_pressure;Samples;Min_cycle;Max_cycle;Signal;HPM_P1;HPM_P2
2022/01/18 00:01:52;;;;;;;14.07;11.30;;;;;;;;;;5064606;28;20232;-84
2022/01/18 00:04:19;;;;;;;14.90;11.43;;;;;;;;;;5073975;28;20225;-84
2022/01/18 00:06:49;;;;;;;14.77;11.93;;;;;;;;;;5066019;28;20231;-85
2022/01/18 00:09:19;;;;;;;16.27;11.50;;;;;;;;;;5068216;28;20221;-84
2022/01/18 00:11:52;;;;;;;16.73;11.37;;;;;;;;;;5069437;28;20212;-82
2022/01/18 00:14:26;;;;;;;15.60;11.53;;;;;;;;;;5065050;28;20233;-85
2022/01/18 00:17:15;;;;;;;15.10;11.57;;;;;;;;;;5063182;28;20303;-85
2022/01/18 00:19:47;;;;;;;14.53;11.37;;;;;;;;;;5063265;28;20221;-83
2022/01/18 00:22:15;;;;;;;15.20;10.83;;;;;;;;;;5069775;28;20209;-83
2022/01/18 00:24:43;;;;;;;15.13;11.33;;;;;;;;;;5064403;28;20232;-83
2022/01/18 00:27:14;;;;;;;16.43;11.93;;;;;;;;;;5078442;28;20721;-83
2022/01/18 00:29:51;;;;;;;13.90;11.03;;;;;;;;;;5064573;28;20268;-83
2022/01/18 00:32:27;;;;;;;13.97;10.80;;;;;;;;;;5066928;28;20286;-84
2022/01/18 00:34:56;;;;;;;13.53;10.97;;;;;;;;;;5066527;28;20228;-84
2022/01/18 00:37:28;;;;;;;13.37;11.43;;;;;;;;;;5063318;28;20232;-83
2022/01/18 00:39:55;;;;;;;13.53;10.43;;;;;;;;;;5075177;28;20288;-83
2022/01/18 00:42:23;;;;;;;13.93;10.63;;;;;;;;;;5079953;28;20205;-84
2022/01/18 00:44:51;;;;;;;13.37;10.30;;;;;;;;;;5074022;28;20217;-83
2022/01/18 00:47:19;;;;;;;13.27;10.43;;;;;;;;;;5064911;28;20207;-83
2022/01/18 00:49:47;;;;;;;12.10;10.10;;;;;;;;;;5068524;28;20222;-83
2022/01/18 00:52:18;;;;;;;13.60;10.90;;;;;;;;;;5081946;28;20205;-84
2022/01/18 00:54:46;;;;;;;12.07;10.13;;;;;;;;;;5069467;28;20233;-83
2022/01/18 00:57:14;;;;;;;12.67;9.77;;;;;;;;;;5079533;28;20204;-84
2022/01/18 00:59:41;;;;;;;14.17;10.27;;;;;;;;;;5073547;28;20216;-84
2022/01/18 01:02:10;;;;;;;13.60;10.57;;;;;;;;;;5066489;28;20264;-83
2022/01/18 01:04:42;;;;;;;12.93;10.90;;;;;;;;;;5060498;28;20255;-83
2022/01/18 01:07:10;;;;;;;15.07;10.90;;;;;;;;;;5059429;28;20267;-83
2022/01/18 01:09:37;;;;;;;13.10;10.50;;;;;;;;;;5064199;28;20205;-83
2022/01/18 01:12:05;;;;;;;13.13;10.33;;;;;;;;;;5063069;28;20265;-83
2022/01/18 01:14:34;;;;;;;14.30;11.33;;;;;;;;;;5059883;28;20218;-83
2022/01/18 01:17:13;;;;;;;14.47;11.10;;;;;;;;;;5072065;28;20235;-82
2022/01/18 01:42:13;;;;;;;14.47;11.17;;;;;;;;;;5055653;28;20200;-84
2022/01/18 01:44:44;;;;;;;15.57;11.20;;;;;;;;;;5058845;28;20221;-83
2022/01/18 01:47:12;;;;;;;15.87;11.70;;;;;;;;;;5058415;28;20209;-85
2022/01/18 01:49:40;;;;;;;15.30;11.60;;;;;;;;;;5067214;28;20258;-83
2022/01/18 01:52:10;;;;;;;17.13;12.23;;;;;;;;;;5064821;28;20213;-83
2022/01/18 01:54:37;;;;;;;14.87;11.63;;;;;;;;;;5061651;28;20229;-83
2022/01/18 01:57:04;;;;;;;16.47;11.90;;;;;;;;;;5070737;28;20227;-85
2022/01/18 01:59:32;;;;;;;16.00;11.10;;;;;;;;;;5070710;28;20232;-85
2022/01/18 02:01:59;;;;;;;16.33;11.93;;;;;;;;;;5074901;28;20231;-83
2022/01/18 02:04:26;;;;;;;16.07;11.40;;;;;;;;;;5072145;28;20314;-84
2022/01/18 02:06:54;;;;;;;15.97;12.13;;;;;;;;;;5071643;28;20201;-83
2022/01/18 02:09:23;;;;;;;16.40;12.50;;;;;;;;;;5062392;28;20205;-83
2022/01/18 02:11:51;;;;;;;14.20;11.70;;;;;;;;;;5074806;28;20209;-84
2022/01/18 02:14:21;;;;;;;16.73;12.57;;;;;;;;;;5070128;28;20229;-83
2022/01/18 02:22:16;;;;;;;14.20;11.83;;;;;;;;;;5063401;28;20191;-84
2022/01/18 02:24:43;;;;;;;14.23;11.67;;;;;;;;;;5074765;28;20236;-83
2022/01/18 02:27:11;;;;;;;14.63;11.83;;;;;;;;;;5085515;28;20193;-84
2022/01/18 02:29:38;;;;;;;15.83;12.33;;;;;;;;;;5073111;28;20221;-84
2022/01/18 02:32:06;;;;;;;19.20;14.97;;;;;;;;;;5078544;28;20258;-83
2022/01/18 02:34:33;;;;;;;18.30;12.40;;;;;;;;;;5072459;28;20225;-82
2022/01/18 02:37:03;;;;;;;17.13;12.83;;;;;;;;;;5070704;28;20224;-83
2022/01/18 02:39:32;;;;;;;16.77;13.40;;;;;;;;;;5072518;28;20239;-83
2022/01/18 02:42:01;;;;;;;14.80;11.80;;;;;;;;;;5073679;28;20208;-84
2022/01/18 02:44:29;;;;;;;15.60;12.43;;;;;;;;;;5078645;28;20258;-84
2022/01/18 02:46:56;;;;;;;17.93;13.00;;;;;;;;;;5074690;28;20201;-84
2022/01/18 02:49:24;;;;;;;17.50;13.37;;;;;;;;;;5054832;28;20235;-84
2022/01/18 02:51:51;;;;;;;16.13;12.20;;;;;;;;;;5067213;28;20197;-84
2022/01/18 02:54:19;;;;;;;17.07;12.70;;;;;;;;;;5067796;28;20251;-84
2022/01/18 02:56:52;;;;;;;17.83;13.03;;;;;;;;;;5075635;28;20259;-83
2022/01/18 02:59:29;;;;;;;17.80;12.97;;;;;;;;;;5078528;28;20204;-81
2022/01/18 03:04:42;;;;;;;17.70;13.20;;;;;;;;;;5067073;28;20216;-84
2022/01/18 03:07:09;;;;;;;16.83;12.57;;;;;;;;;;5076469;28;20691;-83
2022/01/18 03:09:37;;;;;;;16.80;12.63;;;;;;;;;;5084642;28;20250;-84
2022/01/18 03:12:07;;;;;;;18.67;13.17;;;;;;;;;;5072905;28;20201;-82
2022/01/18 03:14:35;;;;;;;15.30;12.33;;;;;;;;;;5066141;28;20225;-82
2022/01/18 03:17:03;;;;;;;17.13;13.47;;;;;;;;;;5072574;28;20205;-83
2022/01/18 03:19:30;;;;;;;17.10;13.37;;;;;;;;;;5065915;28;20393;-84
2022/01/18 03:21:58;;;;;;;17.03;13.43;;;;;;;;;;5066858;28;20205;-85
2022/01/18 03:24:47;;;;;;;18.70;14.03;;;;;;;;;;5076774;28;20311;-83
2022/01/18 03:30:02;;;;;;;17.90;12.83;;;;;;;;;;5070167;28;20208;-84
2022/01/18 03:32:29;;;;;;;19.10;13.70;;;;;;;;;;5067017;28;20265;-83
2022/01/18 03:34:56;;;;;;;18.50;13.33;;;;;;;;;;5062651;28;20271;-83
2022/01/18 03:37:24;;;;;;;16.63;13.13;;;;;;;;;;5059764;28;20228;-83
2022/01/18 03:39:51;;;;;;;17.13;13.30;;;;;;;;;;5068639;28;20227;-83
2022/01/18 03:42:40;;;;;;;19.00;13.13;;;;;;;;;;5076232;28;20251;-85
2022/01/18 03:45:08;;;;;;;19.20;14.33;;;;;;;;;;5078098;28;20238;-83
2022/01/18 03:47:36;;;;;;;19.70;14.57;;;;;;;;;;5067004;28;20369;-83
2022/01/18 03:50:05;;;;;;;20.73;14.90;;;;;;;;;;5088778;28;20191;-86
2022/01/18 03:52:32;;;;;;;20.47;14.00;;;;;;;;;;5078469;28;20196;-83
2022/01/18 03:55:00;;;;;;;21.47;15.03;;;;;;;;;;5077105;28;20216;-86
2022/01/18 03:57:28;;;;;;;19.43;14.67;;;;;;;;;;5077372;28;20189;-86
2022/01/18 03:59:56;;;;;;;20.03;14.17;;;;;;;;;;5080295;28;20232;-86
2022/01/18 04:02:23;;;;;;;17.97;13.40;;;;;;;;;;5076772;28;20209;-86
2022/01/18 04:04:50;;;;;;;18.73;14.33;;;;;;;;;;5082536;28;20201;-86
2022/01/18 04:07:18;;;;;;;18.97;14.33;;;;;;;;;;5082582;28;20263;-86
2022/01/18 04:09:45;;;;;;;19.80;14.37;;;;;;;;;;5082634;28;20181;-86
2022/01/18 04:12:12;;;;;;;17.87;13.33;;;;;;;;;;5079881;28;20188;-85
2022/01/18 04:14:42;;;;;;;18.83;13.73;;;;;;;;;;5088238;28;20269;-84
2022/01/18 04:17:17;;;;;;;19.90;14.73;;;;;;;;;;5086092;28;20201;-83
2022/01/18 04:28:05;;;;;;;20.00;13.97;;;;;;;;;;5059777;28;20205;-83
2022/01/18 04:30:34;;;;;;;18.17;13.47;;;;;;;;;;5069255;28;20255;-83
2022/01/18 04:33:01;;;;;;;20.50;15.17;;;;;;;;;;5072026;28;20205;-82
2022/01/18 04:35:29;;;;;;;17.93;14.00;;;;;;;;;;5074307;22;20221;-85
2022/01/18 04:37:56;;;;;;;21.17;14.57;;;;;;;;;;5051812;28;20200;-85
2022/01/18 04:40:28;;;;;;;20.10;15.10;;;;;;;;;;5065762;28;20304;-85
2022/01/18 04:43:09;;;;;;;17.67;13.17;;;;;;;;;;5058419;28;20212;-85
2022/01/18 04:48:30;;;;;;;20.33;14.73;;;;;;;;;;5039359;28;20212;-85
2022/01/18 04:50:58;;;;;;;21.60;14.30;;;;;;;;;;5044885;28;20228;-85
2022/01/18 04:53:29;;;;;;;19.67;15.17;;;;;;;;;;5035413;28;20213;-85
2022/01/18 04:55:57;;;;;;;22.33;14.47;;;;;;;;;;5042044;28;20311;-85
2022/01/18 04:58:24;;;;;;;22.03;14.47;;;;;;;;;;5028456;28;20205;-85
2022/01/18 05:00:55;;;;;;;21.77;15.40;;;;;;;;;;5031937;28;20221;-85
2022/01/18 05:03:22;;;;;;;20.60;15.03;;;;;;;;;;5025847;28;20236;-85
2022/01/18 05:05:52;;;;;;;20.13;14.20;;;;;;;;;;5032157;28;20245;-85
2022/01/18 05:08:19;;;;;;;22.10;15.00;;;;;;;;;;5033840;28;20232;-85
2022/01/18 05:10:52;;;;;;;19.10;14.00;;;;;;;;;;5048324;28;20197;-85
2022/01/18 05:16:20;;;;;;;20.20;14.80;;;;;;;;;;5030534;28;20218;-85
2022/01/18 05:19:05;;;;;;;20.93;14.43;;;;;;;;;;5033740;28;20224;-85
2022/01/18 05:21:35;;;;;;;21.27;15.30;;;;;;;;;;5032933;28;20250;-85
2022/01/18 05:24:02;;;;;;;21.30;14.67;;;;;;;;;;5037017;28;20190;-85
2022/01/18 05:26:29;;;;;;;21.27;15.53;;;;;;;;;;5037664;28;20228;-85
2022/01/18 05:28:58;;;;;;;21.20;15.00;;;;;;;;;;5035183;28;20263;-85
2022/01/18 05:31:27;;;;;;;24.10;16.87;;;;;;;;;;5049917;28;20197;-85
2022/01/18 05:33:54;;;;;;;22.90;16.20;;;;;;;;;;5048050;28;20287;-85
2022/01/18 05:36:21;;;;;;;23.37;16.57;;;;;;;;;;5054797;28;20264;-85
2022/01/18 05:38:48;;;;;;;23.23;16.20;;;;;;;;;;5050237;28;20221;-87
2022/01/18 05:41:16;;;;;;;22.67;15.97;;;;;;;;;;5047293;28;20222;-86
2022/01/18 05:43:43;;;;;;;21.23;16.13;;;;;;;;;;5042219;28;20201;-86
2022/01/18 05:46:15;;;;;;;21.67;15.43;;;;;;;;;;5045083;28;20267;-86
2022/01/18 05:48:44;;;;;;;24.97;16.13;;;;;;;;;;5038322;28;20209;-86
2022/01/18 05:51:11;;;;;;;24.40;16.47;;;;;;;;;;5045553;28;20201;-86
2022/01/18 05:53:41;;;;;;;22.57;16.47;;;;;;;;;;5043316;28;20292;-86
2022/01/18 05:56:11;;;;;;;24.77;16.30;;;;;;;;;;5049793;28;20739;-86
2022/01/18 05:58:38;;;;;;;26.40;17.57;;;;;;;;;;5045852;28;20243;-86
2022/01/18 06:01:06;;;;;;;23.70;15.77;;;;;;;;;;5041946;28;20264;-86
2022/01/18 06:03:38;;;;;;;25.33;16.60;;;;;;;;;;5050898;28;20205;-86
2022/01/18 06:09:06;;;;;;;24.13;16.13;;;;;;;;;;4993291;28;20221;-86
2022/01/18 06:11:33;;;;;;;26.10;16.27;;;;;;;;;;4982570;28;20204;-85
2022/01/18 06:14:01;;;;;;;24.50;16.53;;;;;;;;;;5004862;28;20210;-86
2022/01/18 06:16:28;;;;;;;24.00;16.83;;;;;;;;;;5033071;28;20221;-86
2022/01/18 06:18:56;;;;;;;25.30;17.17;;;;;;;;;;5034904;28;20202;-86
2022/01/18 06:21:25;;;;;;;24.50;16.83;;;;;;;;;;5040984;28;20222;-86
2022/01/18 06:23:52;;;;;;;21.67;15.03;;;;;;;;;;5033383;28;20202;-86
2022/01/18 06:26:21;;;;;;;24.40;16.47;;;;;;;;;;5034578;28;20225;-86
2022/01/18 06:28:55;;;;;;;25.30;16.10;;;;;;;;;;5035297;28;20203;-86
2022/01/18 06:31:23;;;;;;;26.53;16.57;;;;;;;;;;5037123;28;20270;-86
2022/01/18 06:33:50;;;;;;;23.93;15.93;;;;;;;;;;5037434;28;20212;-84
2022/01/18 06:36:45;;;;;;;22.73;16.57;;;;;;;;;;5048659;28;20230;-85
2022/01/18 06:39:17;;;;;;;25.47;16.60;;;;;;;;;;5027619;28;20222;-87
2022/01/18 06:41:44;;;;;;;24.30;16.57;;;;;;;;;;5043230;28;20243;-88
2022/01/18 06:44:11;;;;;;;23.53;16.30;;;;;;;;;;5033877;28;20229;-88
2022/01/18 06:46:39;;;;;;;26.83;17.03;;;;;;;;;;5046081;28;20197;-87
2022/01/18 06:49:21;;;;;;;27.17;17.13;;;;;;;;;;5053760;28;20201;-86
2022/01/18 06:51:49;;;;;;;28.63;17.77;;;;;;;;;;5033806;28;20197;-86
2022/01/18 06:54:18;;;;;;;27.23;16.93;;;;;;;;;;5032168;28;20278;-87
2022/01/18 06:56:48;;;;;;;27.33;17.27;;;;;;;;;;5037869;28;20707;-86
2022/01/18 06:59:15;;;;;;;24.80;16.57;;;;;;;;;;5022928;28;20243;-86
2022/01/18 07:01:42;;;;;;;26.37;16.97;;;;;;;;;;5025134;28;20268;-85
2022/01/18 07:04:15;;;;;;;24.77;17.37;;;;;;;;;;5022783;28;20229;-86
2022/01/18 07:06:45;;;;;;;24.60;16.90;;;;;;;;;;5035760;28;20233;-87
2022/01/18 07:09:12;;;;;;;27.00;18.17;;;;;;;;;;5035295;28;20202;-86
2022/01/18 07:11:41;;;;;;;23.80;16.33;;;;;;;;;;5045018;28;20201;-86
2022/01/18 07:14:09;;;;;;;23.60;16.37;;;;;;;;;;5041604;28;20236;-87
2022/01/18 07:16:36;;;;;;;25.40;16.53;;;;;;;;;;5033488;28;20202;-86
2022/01/18 07:28:45;;;;;;;20.77;14.93;;;;;;;;;;4963058;28;20210;-85
2022/01/18 07:46:56;;;;;;;23.20;15.27;;;;;;;;;;4988580;28;20656;-83
2022/01/18 07:49:23;;;;;;;26.13;16.07;;;;;;;;;;5035072;28;20236;-89
2022/01/18 07:51:51;;;;;;;22.37;15.47;;;;;;;;;;5027193;28;20256;-88
2022/01/18 07:54:19;;;;;;;19.20;13.93;;;;;;;;;;5041186;28;20296;-89
2022/01/18 07:56:46;;;;;;;20.27;14.53;;;;;;;;;;5032191;28;20209;-88
2022/01/18 07:59:17;;;;;;;19.63;14.17;;;;;;;;;;5028326;28;20674;-88
2022/01/18 08:01:45;;;;;;;18.43;13.60;;;;;;;;;;5031660;28;20228;-87
2022/01/18 08:04:14;;;;;;;21.17;13.53;;;;;;;;;;5047618;28;20208;-88
2022/01/18 08:06:41;;;;;;;18.57;13.07;;;;;;;;;;5067925;28;20216;-88
2022/01/18 08:09:19;;;;;;;22.03;13.20;;;;;;;;;;5044555;28;20198;-88
2022/01/18 08:11:46;;;;;;;19.30;12.70;;;;;;;;;;5025960;28;20201;-90
2022/01/18 08:14:17;;;;;;;19.03;12.97;;;;;;;;;;5041425;28;20211;-89
2022/01/18 08:16:48;;;;;;;17.33;13.47;;;;;;;;;;5032244;28;20202;-89
2022/01/18 08:19:19;;;;;;;17.73;11.57;;;;;;;;;;5035753;28;20212;-89
2022/01/18 08:21:46;;;;;;;19.07;12.97;;;;;;;;;;5041509;28;20221;-89
2022/01/18 08:24:13;;;;;;;19.13;12.13;;;;;;;;;;5036739;28;20218;-82
2022/01/18 08:26:56;;;;;;;17.57;11.57;;;;;;;;;;5043292;28;20293;-82
2022/01/18 08:29:23;;;;;;;17.13;11.50;;;;;;;;;;5040498;28;20201;-82
2022/01/18 08:31:54;;;;;;;17.87;12.17;;;;;;;;;;5054483;28;20205;-88
2022/01/18 08:34:23;;;;;;;16.53;12.40;;;;;;;;;;5040828;28;20282;-88
2022/01/18 08:36:53;;;;;;;17.93;12.23;;;;;;;;;;5041498;28;20256;-87
2022/01/18 08:39:20;;;;;;;19.67;12.60;;;;;;;;;;5037023;28;20208;-86
2022/01/18 08:42:00;;;;;;;17.47;13.03;;;;;;;;;;5048031;28;20263;-87
2022/01/18 08:44:29;;;;;;;18.40;12.03;;;;;;;;;;5043258;28;20311;-88
2022/01/18 08:47:00;;;;;;;17.50;12.80;;;;;;;;;;5054446;28;20212;-87
2022/01/18 08:49:31;;;;;;;15.50;12.00;;;;;;;;;;5054869;28;20296;-87
2022/01/18 08:51:59;;;;;;;19.97;12.73;;;;;;;;;;5038171;28;20206;-87
2022/01/18 08:54:26;;;;;;;16.80;12.20;;;;;;;;;;5049840;28;20209;-86
2022/01/18 08:56:54;;;;;;;16.20;12.23;;;;;;;;;;5055843;28;20268;-88
2022/01/18 08:59:21;;;;;;;15.70;11.50;;;;;;;;;;5054593;28;20205;-86
2022/01/18 09:02:01;;;;;;;18.00;12.03;;;;;;;;;;5038373;28;20226;-86
2022/01/18 09:04:30;;;;;;;16.43;11.13;;;;;;;;;;5047141;28;20225;-86
2022/01/18 09:07:02;;;;;;;16.50;11.03;;;;;;;;;;5041220;28;20207;-86
2022/01/18 09:09:29;;;;;;;17.70;11.43;;;;;;;;;;5040072;28;20236;-86
2022/01/18 09:11:56;;;;;;;17.27;11.90;;;;;;;;;;5037265;28;20208;-86
2022/01/18 09:14:25;;;;;;;14.60;11.50;;;;;;;;;;5047282;28;20209;-86
2022/01/18 09:16:53;;;;;;;14.53;11.47;;;;;;;;;;5055500;28;20209;-86
2022/01/18 09:19:20;;;;;;;17.90;11.57;;;;;;;;;;5039037;28;20201;-87
2022/01/18 09:21:53;;;;;;;17.17;11.50;;;;;;;;;;5027780;28;20232;-89
2022/01/18 09:24:20;;;;;;;17.03;11.80;;;;;;;;;;5036365;28;20208;-86
2022/01/18 09:26:49;;;;;;;16.73;11.73;;;;;;;;;;5027760;28;20260;-86
2022/01/18 09:29:17;;;;;;;17.13;12.00;;;;;;;;;;5029685;28;20227;-86
2022/01/18 09:31:45;;;;;;;16.50;11.30;;;;;;;;;;5034537;28;20248;-88
2022/01/18 09:34:12;;;;;;;14.97;11.43;;;;;;;;;;5038488;28;20218;-87
2022/01/18 09:36:40;;;;;;;15.03;11.80;;;;;;;;;;5035176;28;20240;-86
2022/01/18 09:39:09;;;;;;;14.10;10.57;;;;;;;;;;5033735;28;20213;-86
2022/01/18 09:41:40;;;;;;;14.17;10.70;;;;;;;;;;5031744;28;20213;-90
2022/01/18 09:44:08;;;;;;;18.80;12.17;;;;;;;;;;5028793;28;20198;-85
2022/01/18 09:46:35;;;;;;;15.33;11.57;;;;;;;;;;5030084;28;20241;-88
2022/01/18 09:49:05;;;;;;;13.40;10.83;;;;;;;;;;5041297;28;20202;-89
2022/01/18 09:51:35;;;;;;;15.13;10.57;;;;;;;;;;5042875;28;20214;-87
2022/01/18 09:54:02;;;;;;;13.37;10.60;;;;;;;;;;5030892;28;20256;-89
2022/01/18 09:56:31;;;;;;;13.30;9.87;;;;;;;;;;5026274;28;20223;-86
2022/01/18 09:59:00;;;;;;;14.17;9.43;;;;;;;;;;5029378;28;20213;-86
2022/01/18 10:01:29;;;;;;;13.77;10.30;;;;;;;;;;5048220;28;20289;-86
2022/01/18 10:04:13;;;;;;;12.00;8.73;;;;;;;;;;5042559;28;20214;-86
2022/01/18 10:06:43;;;;;;;13.30;9.23;;;;;;;;;;5034501;28;20202;-86
2022/01/18 10:09:12;;;;;;;12.50;9.37;;;;;;;;;;5039480;28;20209;-86
2022/01/18 10:12:01;;;;;;;11.63;9.23;;;;;;;;;;5032015;28;20193;-86
2022/01/18 10:14:32;;;;;;;13.20;9.67;;;;;;;;;;5034279;28;20224;-86
2022/01/18 10:16:59;;;;;;;13.03;9.43;;;;;;;;;;5027725;28;20209;-86
2022/01/18 10:19:31;;;;;;;14.47;10.07;;;;;;;;;;5028907;28;20229;-85
2022/01/18 10:22:08;;;;;;;14.77;10.50;;;;;;;;;;5029188;28;20696;-86
2022/01/18 10:24:35;;;;;;;17.23;10.33;;;;;;;;;;5030211;28;20233;-86
2022/01/18 10:27:04;;;;;;;13.37;10.20;;;;;;;;;;5029193;28;20201;-86
2022/01/18 10:29:33;;;;;;;13.90;9.60;;;;;;;;;;5030021;28;20202;-86
2022/01/18 10:32:10;;;;;;;15.60;9.07;;;;;;;;;;5040743;28;20194;-86
2022/01/18 10:35:04;;;;;;;13.00;8.97;;;;;;;;;;5048193;28;20229;-87
2022/01/18 10:37:32;;;;;;;11.33;8.33;;;;;;;;;;5066326;22;20236;-85
2022/01/18 10:40:01;;;;;;;9.93;6.80;;;;;;;;;;5053598;28;20197;-84
2022/01/18 10:42:33;;;;;;;9.47;7.40;;;;;;;;;;5064752;28;20216;-84
2022/01/18 10:45:03;;;;;;;11.30;7.00;;;;;;;;;;5059637;28;20209;-84
2022/01/18 10:47:30;;;;;;;8.90;6.70;;;;;;;;;;5060178;28;20286;-83
2022/01/18 10:49:58;;;;;;;8.80;6.60;;;;;;;;;;5044870;28;20255;-83
2022/01/18 10:52:28;;;;;;;8.00;5.50;;;;;;;;;;5051607;28;20212;-85
2022/01/18 10:55:01;;;;;;;9.03;5.73;;;;;;;;;;5044997;28;20264;-85
2022/01/18 10:57:32;;;;;;;10.00;6.63;;;;;;;;;;5035165;28;20604;-84
2022/01/18 11:00:00;;;;;;;9.03;6.90;;;;;;;;;;5052347;28;20217;-85
2022/01/18 11:02:28;;;;;;;11.33;6.87;;;;;;;;;;5058646;28;20252;-84
2022/01/18 11:04:56;;;;;;;10.03;5.07;;;;;;;;;;5037382;28;20209;-85
2022/01/18 11:07:26;;;;;;;9.03;5.67;;;;;;;;;;5050601;28;20221;-85
2022/01/18 11:09:53;;;;;;;6.40;5.03;;;;;;;;;;5052649;28;20201;-85
2022/01/18 11:12:25;;;;;;;10.60;6.93;;;;;;;;;;5039387;28;20206;-86
2022/01/18 11:15:04;;;;;;;9.57;7.10;;;;;;;;;;5039497;28;20208;-83
2022/01/18 11:17:39;;;;;;;10.70;8.03;;;;;;;;;;5038608;28;20252;-85
2022/01/18 11:20:09;;;;;;;12.80;8.70;;;;;;;;;;5038964;28;20211;-85
2022/01/18 11:22:37;;;;;;;11.50;8.00;;;;;;;;;;5047400;28;20225;-86
2022/01/18 11:25:05;;;;;;;10.13;6.67;;;;;;;;;;5036952;28;20214;-86
2022/01/18 11:27:36;;;;;;;9.23;7.27;;;;;;;;;;5056105;28;20225;-86
2022/01/18 11:30:06;;;;;;;9.10;7.17;;;;;;;;;;5057282;28;20730;-85
2022/01/18 11:32:33;;;;;;;10.07;6.83;;;;;;;;;;5037810;28;20273;-84
2022/01/18 11:35:06;;;;;;;9.43;7.40;;;;;;;;;;5043040;28;20198;-83
2022/01/18 11:37:43;;;;;;;8.87;6.43;;;;;;;;;;5052594;28;20786;-87
2022/01/18 11:40:11;;;;;;;11.90;7.10;;;;;;;;;;5045918;28;20212;-82
2022/01/18 11:42:46;;;;;;;8.83;6.47;;;;;;;;;;5051446;28;20255;-83
2022/01/18 11:45:42;;;;;;;12.80;6.70;;;;;;;;;;5038653;28;20265;-83
2022/01/18 11:48:17;;;;;;;9.57;6.70;;;;;;;;;;5036902;28;20226;-82
2022/01/18 11:50:46;;;;;;;10.47;6.70;;;;;;;;;;5037676;28;20197;-83
2022/01/18 11:53:22;;;;;;;9.80;6.00;;;;;;;;;;5037749;28;20206;-84
2022/01/18 11:55:49;;;;;;;9.53;6.23;;;;;;;;;;5033146;28;20251;-83
2022/01/18 11:58:17;;;;;;;8.33;6.30;;;;;;;;;;5035124;28;20229;-83
2022/01/18 12:00:51;;;;;;;9.57;6.10;;;;;;;;;;5033499;28;20604;-85
2022/01/18 12:03:20;;;;;;;10.10;6.77;;;;;;;;;;5032534;28;20213;-82
2022/01/18 12:05:47;;;;;;;10.50;6.97;;;;;;;;;;5035596;28;20248;-81
2022/01/18 12:08:30;;;;;;;8.43;6.70;;;;;;;;;;5037327;28;20233;-83
2022/01/18 12:10:58;;;;;;;9.07;6.77;;;;;;;;;;5039598;28;20237;-81
2022/01/18 12:13:26;;;;;;;9.13;6.90;;;;;;;;;;5039676;28;20200;-83
2022/01/18 12:15:57;;;;;;;10.87;7.80;;;;;;;;;;5038912;28;20205;-84
2022/01/18 12:18:24;;;;;;;9.93;6.93;;;;;;;;;;5036933;28;20252;-83
2022/01/18 12:20:53;;;;;;;8.30;6.23;;;;;;;;;;5041312;28;20209;-85
2022/01/18 12:23:21;;;;;;;6.40;4.93;;;;;;;;;;5039434;28;20256;-84
2022/01/18 12:25:55;;;;;;;7.10;4.80;;;;;;;;;;5037013;28;20213;-82
2022/01/18 12:35:00;;;;;;;5.90;4.43;;;;;;;;;;4995149;28;20548;-82
2022/01/18 12:37:40;;;;;;;11.07;4.73;;;;;;;;;;5006112;28;20237;-84
2022/01/18 12:40:10;;;;;;;7.57;4.60;;;;;;;;;;5036558;28;20301;-83
2022/01/18 12:45:27;;;;;;;7.87;4.17;;;;;;;;;;5035746;28;20205;-83
2022/01/18 12:47:55;;;;;;;6.20;3.80;;;;;;;;;;5040455;28;20224;-83
2022/01/18 12:50:27;;;;;;;3.93;3.33;;;;;;;;;;5057030;28;20209;-83
2022/01/18 12:52:55;;;;;;;5.63;3.53;;;;;;;;;;5045845;28;20280;-84
2022/01/18 12:55:35;;;;;;;6.23;3.47;;;;;;;;;;5041076;28;20232;-82
2022/01/18 12:58:04;;;;;;;3.70;3.07;;;;;;;;;;5045100;28;20269;-82
2022/01/18 13:00:39;;;;;;;6.57;3.73;;;;;;;;;;5032135;28;20209;-84
2022/01/18 13:03:06;;;;;;;7.10;3.43;;;;;;;;;;5038282;28;20217;-85
2022/01/18 13:05:36;;;;;;;4.63;3.73;;;;;;;;;;5036663;28;20210;-83
2022/01/18 13:08:04;;;;;;;6.47;3.87;;;;;;;;;;5031797;28;20225;-86
2022/01/18 13:10:35;;;;;;;4.93;3.07;;;;;;;;;;5042503;28;20239;-84
2022/01/18 13:13:03;;;;;;;6.60;3.47;;;;;;;;;;5045976;28;20213;-85
2022/01/18 13:24:33;;;;;;;4.57;2.80;;;;;;;;;;5035890;28;20217;-84
2022/01/18 13:27:13;;;;;;;5.43;2.57;;;;;;;;;;5050184;28;20233;-83
2022/01/18 13:29:44;;;;;;;3.87;2.40;;;;;;;;;;5053346;28;20231;-85
2022/01/18 13:32:16;;;;;;;2.97;2.10;;;;;;;;;;5038606;28;20202;-82
2022/01/18 13:34:45;;;;;;;3.00;2.70;;;;;;;;;;5045975;28;20247;-85
2022/01/18 13:37:18;;;;;;;5.17;2.47;;;;;;;;;;5049890;28;20240;-84
2022/01/18 13:39:50;;;;;;;7.27;2.80;;;;;;;;;;5038231;28;20210;-82
2022/01/18 13:42:18;;;;;;;3.73;2.80;;;;;;;;;;5044783;28;20198;-85
2022/01/18 13:45:04;;;;;;;4.87;2.80;;;;;;;;;;5034959;28;20226;-84
2022/01/18 13:47:38;;;;;;;5.97;2.57;;;;;;;;;;5039280;28;20248;-83
2022/01/18 13:50:06;;;;;;;8.47;3.63;;;;;;;;;;5037885;28;20247;-83
2022/01/18 13:52:39;;;;;;;6.63;3.40;;;;;;;;;;5039667;28;20202;-83
2022/01/18 13:55:07;;;;;;;4.07;3.27;;;;;;;;;;5050516;28;20209;-85
2022/01/18 13:57:38;;;;;;;3.40;3.10;;;;;;;;;;5052341;28;20228;-83
2022/01/18 14:00:10;;;;;;;4.77;3.00;;;;;;;;;;5055350;28;20228;-85
2022/01/18 14:02:42;;;;;;;7.73;3.57;;;;;;;;;;5054484;28;20206;-85
2022/01/18 14:05:10;;;;;;;6.90;3.70;;;;;;;;;;5043467;28;20194;-85
2022/01/18 14:07:39;;;;;;;4.03;3.63;;;;;;;;;;5038746;28;20214;-84
2022/01/18 14:10:08;;;;;;;3.77;3.30;;;;;;;;;;5046651;28;20256;-86
2022/01/18 14:12:37;;;;;;;4.43;3.10;;;;;;;;;;5040280;28;20640;-83
2022/01/18 14:15:08;;;;;;;6.80;3.70;;;;;;;;;;5042126;28;20193;-83
2022/01/18 14:17:35;;;;;;;4.23;2.47;;;;;;;;;;5039893;28;20223;-84
2022/01/18 14:20:08;;;;;;;3.53;2.13;;;;;;;;;;5040186;28;20251;-84
2022/01/18 14:22:36;;;;;;;6.37;2.77;;;;;;;;;;5039926;28;20206;-87
2022/01/18 14:25:07;;;;;;;5.03;3.10;;;;;;;;;;5031292;28;20215;-83
2022/01/18 14:27:37;;;;;;;6.73;3.23;;;;;;;;;;5045279;28;20281;-84
2022/01/18 14:30:05;;;;;;;6.40;3.47;;;;;;;;;;5054060;28;20208;-86
2022/01/18 14:32:36;;;;;;;5.23;2.90;;;;;;;;;;5057669;28;20258;-85
2022/01/18 14:35:05;;;;;;;9.37;3.10;;;;;;;;;;5036238;28;20206;-86
2022/01/18 14:37:37;;;;;;;6.63;2.80;;;;;;;;;;5043162;28;20245;-87
2022/01/18 14:40:07;;;;;;;4.83;2.60;;;;;;;;;;5038414;28;20197;-87
2022/01/18 14:42:44;;;;;;;7.40;6.70;;;;;;;;;;5042321;28;20206;-86
2022/01/18 14:45:31;;;;;;;6.00;3.10;;;;;;;;;;5043470;28;20225;-86
2022/01/18 14:47:59;;;;;;;4.87;2.53;;;;;;;;;;5042275;28;20255;-87
2022/01/18 14:50:29;;;;;;;4.03;2.77;;;;;;;;;;5043467;28;20210;-87
2022/01/18 14:52:56;;;;;;;3.27;2.67;;;;;;;;;;5043256;28;20206;-85
2022/01/18 14:55:26;;;;;;;8.33;6.27;;;;;;;;;;5047542;28;20205;-86
2022/01/18 14:57:54;;;;;;;4.87;3.20;;;;;;;;;;5040747;28;20264;-85
2022/01/18 15:00:22;;;;;;;6.37;3.40;;;;;;;;;;5043929;28;20190;-87
2022/01/18 15:02:52;;;;;;;5.33;3.20;;;;;;;;;;5066278;28;20224;-86
2022/01/18 15:05:21;;;;;;;3.37;2.60;;;;;;;;;;5041729;28;20225;-85
2022/01/18 15:07:49;;;;;;;6.13;4.77;;;;;;;;;;5040489;28;20233;-87
2022/01/18 15:10:17;;;;;;;5.90;3.57;;;;;;;;;;5060456;28;20205;-87
2022/01/18 15:12:48;;;;;;;6.73;3.30;;;;;;;;;;5055525;28;20722;-86
2022/01/18 15:15:17;;;;;;;8.33;3.17;;;;;;;;;;5035245;28;20208;-86
2022/01/18 15:17:45;;;;;;;4.53;3.57;;;;;;;;;;5036687;28;20253;-84
2022/01/18 15:20:15;;;;;;;7.30;4.00;;;;;;;;;;5050704;28;20209;-84
2022/01/18 15:22:43;;;;;;;5.83;3.47;;;;;;;;;;5036914;28;20214;-85
2022/01/18 15:25:10;;;;;;;4.80;3.80;;;;;;;;;;5043174;28;20218;-85
2022/01/18 15:27:38;;;;;;;8.37;4.30;;;;;;;;;;5040479;28;20234;-87
2022/01/18 15:30:10;;;;;;;4.60;3.50;;;;;;;;;;5041592;28;20221;-86
2022/01/18 15:32:38;;;;;;;8.33;3.90;;;;;;;;;;5042379;28;20257;-83
2022/01/18 15:35:06;;;;;;;5.43;3.37;;;;;;;;;;5043256;28;20224;-83
2022/01/18 15:37:33;;;;;;;7.33;3.47;;;;;;;;;;5048361;28;20241;-86
2022/01/18 15:40:02;;;;;;;5.50;3.37;;;;;;;;;;5050735;28;20201;-87
2022/01/18 15:42:30;;;;;;;6.23;3.80;;;;;;;;;;5062457;28;20201;-84
2022/01/18 15:44:57;;;;;;;4.30;3.00;;;;;;;;;;5055712;28;20225;-85
2022/01/18 15:47:26;;;;;;;4.73;3.20;;;;;;;;;;5042302;28;20225;-84
2022/01/18 15:49:54;;;;;;;5.23;3.30;;;;;;;;;;5042559;28;20220;-85
2022/01/18 15:52:22;;;;;;;5.93;3.53;;;;;;;;;;5061932;28;20205;-85
2022/01/18 15:54:49;;;;;;;10.57;3.90;;;;;;;;;;5047696;28;20209;-85
2022/01/18 15:57:17;;;;;;;6.47;3.50;;;;;;;;;;5047612;28;20233;-83
2022/01/18 15:59:45;;;;;;;6.97;3.60;;;;;;;;;;5056039;28;20229;-85
2022/01/18 16:02:12;;;;;;;6.53;3.47;;;;;;;;;;5048835;28;20276;-86
2022/01/18 16:04:44;;;;;;;4.03;3.30;;;;;;;;;;5056393;28;20290;-85
2022/01/18 16:07:16;;;;;;;5.20;4.10;;;;;;;;;;5047151;28;20238;-85
2022/01/18 16:09:44;;;;;;;5.40;3.50;;;;;;;;;;5049333;28;20251;-85
2022/01/18 16:12:12;;;;;;;5.33;3.63;;;;;;;;;;5047843;28;20213;-85
2022/01/18 16:14:39;;;;;;;5.67;3.90;;;;;;;;;;5049748;28;20190;-85
2022/01/18 16:17:14;;;;;;;5.17;3.90;;;;;;;;;;5052433;28;20214;-85